Time;durP1;ratioP1;P1;durP2;ratioP2;P2;SDS_P1;SDS_P2;PMS_P1;PMS_P2;Temp;Humidity;BMP_temperature;BMP_pressure;BME280_temperature;BME280_humidity;BME280_pressure;Samples;Min_cycle;Max_cycle;Signal;HPM_P1;HPM_P2
2022/11/24 00:00:31;;;;;;;;;;;23.50;93.50;;;;;;5117629;28;19916;-66
2022/11/24 00:02:59;;;;;;;;;;;23.50;93.40;;;;;;5117216;28;20270;-61
2022/11/24 00:05:26;;;;;;;;;;;23.30;93.10;;;;;;5117601;28;19912;-60
2022/11/24 00:07:52;;;;;;;;;;;23.20;93.10;;;;;;5117741;28;19908;-60
2022/11/24 00:10:19;;;;;;;;;;;23.20;92.70;;;;;;5117610;28;19912;-60
2022/11/24 00:12:46;;;;;;;;;;;23.20;93.00;;;;;;5117259;28;19908;-60
2022/11/24 00:15:12;;;;;;;;;;;23.30;93.60;;;;;;5117409;28;19908;-63
2022/11/24 00:17:39;;;;;;;;;;;23.50;93.90;;;;;;5117251;28;19912;-65
2022/11/24 00:20:06;;;;;;;;;;;23.50;93.10;;;;;;5117407;28;20354;-62
2022/11/24 00:22:33;;;;;;;;;;;23.70;92.70;;;;;;5117326;28;19915;-64
2022/11/24 00:24:59;;;;;;;;;;;23.70;92.60;;;;;;5117132;28;19947;-61
2022/11/24 00:27:26;;;;;;;;;;;23.70;93.10;;;;;;5117416;28;19908;-62
2022/11/24 00:29:53;;;;;;;;;;;23.90;93.10;;;;;;5117284;28;19908;-62
2022/11/24 00:32:19;;;;;;;;;;;24.30;92.60;;;;;;5098771;28;19912;-60
2022/11/24 00:34:46;;;;;;;;;;;23.50;93.00;;;;;;5116800;28;19908;-60
2022/11/24 00:37:13;;;;;;;;;;;23.60;93.40;;;;;;5116964;28;19952;-61
2022/11/24 00:39:40;;;;;;;;;;;23.90;93.00;;;;;;5116833;28;20045;-61
2022/11/24 00:42:06;;;;;;;;;;;24.10;93.10;;;;;;5116947;28;19908;-60
2022/11/24 00:44:33;;;;;;;;;;;24.60;92.90;;;;;;5116900;28;19908;-60
2022/11/24 00:47:00;;;;;;;;;;;25.00;93.00;;;;;;5116521;28;19915;-64
2022/11/24 00:49:26;;;;;;;;;;;25.60;91.50;;;;;;5116838;28;20355;-64
2022/11/24 00:51:53;;;;;;;;;;;25.90;91.70;;;;;;5116694;28;19908;-63
2022/11/24 00:54:20;;;;;;;;;;;26.50;91.40;;;;;;5116728;28;20358;-61
2022/11/24 00:56:47;;;;;;;;;;;26.70;90.80;;;;;;5116279;28;19966;-60
2022/11/24 00:59:13;;;;;;;;;;;27.30;90.70;;;;;;5116354;28;19989;-62
2022/11/24 01:01:41;;;;;;;;;;;27.60;90.90;;;;;;5116475;28;19961;-61
2022/11/24 01:04:08;;;;;;;;;;;28.00;91.30;;;;;;5116345;28;19908;-62
2022/11/24 01:06:35;;;;;;;;;;;28.60;91.10;;;;;;5116330;28;19908;-61
2022/11/24 01:09:02;;;;;;;;;;;28.50;91.30;;;;;;5116233;28;19907;-63
2022/11/24 01:14:19;;;;;;;;;;;27.10;92.00;;;;;;5116867;28;19977;-66
2022/11/24 01:16:46;;;;;;;;;;;27.30;92.00;;;;;;5116060;28;19908;-62
2022/11/24 01:19:12;;;;;;;;;;;27.50;91.90;;;;;;5116127;28;19911;-60
2022/11/24 01:21:39;;;;;;;;;;;27.90;92.00;;;;;;5116355;28;19912;-60
2022/11/24 01:24:06;;;;;;;;;;;27.30;91.70;;;;;;5116180;28;19907;-62
2022/11/24 01:26:33;;;;;;;;;;;26.70;92.20;;;;;;5115983;28;20356;-60
2022/11/24 01:28:59;;;;;;;;;;;26.90;92.50;;;;;;5116093;28;19951;-63
2022/11/24 01:31:26;;;;;;;;;;;26.80;92.90;;;;;;5116072;28;20388;-61
2022/11/24 01:33:53;;;;;;;;;;;26.80;92.40;;;;;;5115658;28;19908;-62
2022/11/24 01:36:20;;;;;;;;;;;26.70;92.40;;;;;;5115874;28;19912;-67
2022/11/24 01:38:47;;;;;;;;;;;26.40;92.80;;;;;;5115649;28;20255;-65
2022/11/24 01:41:24;;;;;;;;;;;26.20;93.00;;;;;;5115888;28;19912;-67
2022/11/24 01:43:52;;;;;;;;;;;25.60;92.80;;;;;;5115799;28;19912;-60
2022/11/24 01:46:23;;;;;;;;;;;25.30;93.90;;;;;;5115625;28;19953;-62
2022/11/24 01:49:18;;;;;;;;;;;25.30;93.50;;;;;;5115279;28;19938;-62
2022/11/24 01:51:48;;;;;;;;;;;25.10;93.40;;;;;;5113842;28;20338;-60
2022/11/24 01:54:17;;;;;;;;;;;25.00;94.70;;;;;;5115694;28;19912;-62
2022/11/24 01:56:45;;;;;;;;;;;24.80;95.20;;;;;;5115432;28;19919;-60
2022/11/24 01:59:13;;;;;;;;;;;24.90;95.40;;;;;;5115397;28;19955;-69
2022/11/24 02:01:40;;;;;;;;;;;24.90;95.10;;;;;;5115567;28;19913;-66
2022/11/24 02:04:09;;;;;;;;;;;24.80;94.10;;;;;;5115344;28;19908;-70
2022/11/24 02:06:37;;;;;;;;;;;24.70;93.80;;;;;;5115411;28;19907;-70
2022/11/24 02:09:04;;;;;;;;;;;24.50;94.50;;;;;;5115079;28;19908;-69
2022/11/24 02:11:34;;;;;;;;;;;24.50;94.50;;;;;;5115106;28;20334;-67
2022/11/24 02:14:01;;;;;;;;;;;24.50;95.10;;;;;;5115154;28;19907;-67
2022/11/24 02:16:28;;;;;;;;;;;24.60;94.20;;;;;;5115102;28;19943;-70
2022/11/24 02:18:55;;;;;;;;;;;24.60;94.80;;;;;;5114209;28;19908;-67
2022/11/24 02:21:22;;;;;;;;;;;24.50;95.60;;;;;;5115100;28;19933;-68
2022/11/24 02:24:01;;;;;;;;;;;24.30;95.80;;;;;;5114890;28;20274;-69
2022/11/24 02:26:44;;;;;;;;;;;24.20;96.30;;;;;;5115143;28;19914;-67
2022/11/24 02:29:12;;;;;;;;;;;23.90;97.70;;;;;;5114860;28;20251;-67
2022/11/24 02:31:41;;;;;;;;;;;23.80;98.00;;;;;;5114842;28;19955;-63
2022/11/24 02:34:07;;;;;;;;;;;23.90;97.60;;;;;;5114712;28;19908;-68
2022/11/24 02:36:34;;;;;;;;;;;23.70;98.30;;;;;;5114865;28;20010;-69
2022/11/24 02:39:01;;;;;;;;;;;23.80;98.00;;;;;;5114170;28;19911;-63
2022/11/24 02:41:28;;;;;;;;;;;23.90;97.40;;;;;;5114661;28;20293;-68
2022/11/24 02:43:55;;;;;;;;;;;23.90;97.30;;;;;;5114757;28;19908;-69
2022/11/24 02:46:22;;;;;;;;;;;24.00;97.40;;;;;;5114396;28;19991;-62
2022/11/24 02:48:49;;;;;;;;;;;24.10;97.30;;;;;;5114046;28;19908;-68
2022/11/24 02:51:16;;;;;;;;;;;24.00;97.30;;;;;;5114550;28;19908;-69
2022/11/24 02:53:42;;;;;;;;;;;24.10;97.60;;;;;;5114385;28;20424;-66
2022/11/24 02:56:09;;;;;;;;;;;24.20;96.50;;;;;;5114298;28;19949;-72
2022/11/24 02:58:36;;;;;;;;;;;23.90;97.40;;;;;;5114343;28;20341;-69
2022/11/24 03:01:02;;;;;;;;;;;23.80;97.30;;;;;;5113797;28;19916;-69
2022/11/24 03:03:29;;;;;;;;;;;24.00;96.50;;;;;;5114218;28;19908;-68
2022/11/24 03:05:56;;;;;;;;;;;23.70;96.80;;;;;;5114259;28;19958;-67
2022/11/24 03:08:23;;;;;;;;;;;23.90;96.90;;;;;;5114079;28;19908;-68
2022/11/24 03:10:49;;;;;;;;;;;24.10;96.70;;;;;;5114142;28;19940;-69
2022/11/24 03:13:16;;;;;;;;;;;24.00;96.90;;;;;;5114083;28;19930;-70
2022/11/24 03:15:43;;;;;;;;;;;24.10;96.80;;;;;;5114083;28;19908;-70
2022/11/24 03:18:09;;;;;;;;;;;24.20;96.60;;;;;;5113753;28;19912;-64
2022/11/24 03:20:36;;;;;;;;;;;24.20;96.20;;;;;;5113771;28;19915;-62
2022/11/24 03:23:03;;;;;;;;;;;24.50;95.90;;;;;;5113746;28;19908;-63
2022/11/24 03:25:30;;;;;;;;;;;24.20;95.80;;;;;;5113906;28;20417;-59
2022/11/24 03:27:57;;;;;;;;;;;24.00;96.20;;;;;;5113852;28;19907;-65
2022/11/24 03:30:23;;;;;;;;;;;24.10;96.30;;;;;;5112887;28;20346;-63
2022/11/24 03:32:53;;;;;;;;;;;24.00;96.00;;;;;;5113383;28;20370;-68
2022/11/24 03:35:20;;;;;;;;;;;24.00;95.50;;;;;;5113744;28;19916;-60
2022/11/24 03:37:47;;;;;;;;;;;23.70;96.40;;;;;;5113512;28;19908;-62
2022/11/24 03:40:14;;;;;;;;;;;23.70;96.30;;;;;;5113607;28;19916;-61
2022/11/24 03:42:41;;;;;;;;;;;23.70;95.30;;;;;;5113652;28;20424;-59
2022/11/24 03:45:08;;;;;;;;;;;23.80;95.70;;;;;;5113458;28;19916;-63
2022/11/24 03:47:35;;;;;;;;;;;24.00;95.60;;;;;;5113468;28;19907;-61
2022/11/24 03:50:01;;;;;;;;;;;23.90;96.20;;;;;;5113402;28;19908;-63
2022/11/24 03:52:28;;;;;;;;;;;23.80;96.60;;;;;;5113589;28;19907;-63
2022/11/24 03:54:55;;;;;;;;;;;23.70;97.20;;;;;;5113435;28;19915;-64
2022/11/24 03:57:21;;;;;;;;;;;23.80;96.40;;;;;;5113499;28;19919;-65
2022/11/24 03:59:48;;;;;;;;;;;23.70;97.00;;;;;;5113444;28;19958;-62
2022/11/24 04:02:15;;;;;;;;;;;23.60;96.30;;;;;;5113297;28;19907;-66
2022/11/24 04:04:42;;;;;;;;;;;23.40;96.90;;;;;;5113459;28;19915;-65
2022/11/24 04:07:08;;;;;;;;;;;23.30;98.10;;;;;;5113143;28;19908;-61
2022/11/24 04:09:35;;;;;;;;;;;23.00;98.70;;;;;;5113573;28;19953;-62
2022/11/24 04:14:46;;;;;;;;;;;23.00;98.60;;;;;;5113628;28;19915;-63
2022/11/24 04:17:13;;;;;;;;;;;23.40;98.10;;;;;;5113055;28;19992;-60
2022/11/24 04:19:40;;;;;;;;;;;23.60;97.80;;;;;;5113161;28;19919;-61
2022/11/24 04:22:07;;;;;;;;;;;23.80;97.90;;;;;;5113255;28;20017;-65
2022/11/24 04:24:34;;;;;;;;;;;23.70;97.20;;;;;;5113306;28;19922;-64
2022/11/24 04:27:01;;;;;;;;;;;23.80;97.70;;;;;;5112933;28;20358;-61
2022/11/24 04:29:27;;;;;;;;;;;23.90;97.50;;;;;;5113149;28;19908;-66
2022/11/24 04:31:54;;;;;;;;;;;23.50;99.00;;;;;;5113064;28;19961;-70
2022/11/24 04:34:21;;;;;;;;;;;23.50;98.60;;;;;;5112964;28;20336;-70
2022/11/24 04:36:47;;;;;;;;;;;23.20;99.60;;;;;;5112957;28;19976;-71
2022/11/24 04:39:14;;;;;;;;;;;23.10;99.90;;;;;;5113045;28;19919;-69
2022/11/24 04:41:41;;;;;;;;;;;23.00;99.90;;;;;;5115017;28;19912;-71
2022/11/24 04:44:07;;;;;;;;;;;22.90;99.90;;;;;;5117080;28;19908;-71
2022/11/24 04:46:34;;;;;;;;;;;22.80;99.90;;;;;;5116712;28;19954;-70
2022/11/24 04:49:01;;;;;;;;;;;22.70;99.80;;;;;;5116513;28;20287;-71
2022/11/24 04:51:28;;;;;;;;;;;22.60;99.90;;;;;;5116743;28;19908;-69
2022/11/24 04:53:55;;;;;;;;;;;22.40;99.90;;;;;;5116761;28;19908;-60
2022/11/24 04:56:21;;;;;;;;;;;22.50;99.90;;;;;;5116596;28;19919;-60
2022/11/24 04:58:48;;;;;;;;;;;22.50;99.90;;;;;;5116461;28;20343;-60
2022/11/24 05:01:15;;;;;;;;;;;22.50;99.90;;;;;;5116321;28;19915;-61
2022/11/24 05:03:42;;;;;;;;;;;22.50;99.90;;;;;;5116575;28;19914;-62
2022/11/24 05:06:08;;;;;;;;;;;22.50;99.90;;;;;;5116586;28;19915;-61
2022/11/24 05:08:35;;;;;;;;;;;22.30;99.90;;;;;;5116504;28;20324;-61
2022/11/24 05:11:05;;;;;;;;;;;22.20;99.90;;;;;;5116181;28;19912;-60
2022/11/24 05:13:32;;;;;;;;;;;22.20;99.90;;;;;;5116223;28;19908;-60
2022/11/24 05:16:00;;;;;;;;;;;22.20;99.90;;;;;;5116079;28;19908;-60
2022/11/24 05:18:27;;;;;;;;;;;22.00;99.90;;;;;;5116202;28;19908;-60
2022/11/24 05:20:54;;;;;;;;;;;22.00;99.90;;;;;;5115828;28;19951;-60
2022/11/24 05:23:21;;;;;;;;;;;21.90;99.90;;;;;;5116140;28;19908;-60
2022/11/24 05:25:48;;;;;;;;;;;21.80;99.90;;;;;;5116204;28;19990;-61
2022/11/24 05:28:14;;;;;;;;;;;21.80;99.90;;;;;;5115999;28;20007;-60
2022/11/24 05:30:41;;;;;;;;;;;21.70;99.90;;;;;;5116081;28;19914;-60
2022/11/24 05:33:11;;;;;;;;;;;21.70;99.90;;;;;;5115747;28;20322;-60
2022/11/24 05:35:37;;;;;;;;;;;21.70;99.90;;;;;;5116014;28;20009;-61
2022/11/24 05:38:04;;;;;;;;;;;21.70;99.90;;;;;;5115822;28;19955;-60
2022/11/24 05:40:31;;;;;;;;;;;21.90;99.90;;;;;;5115755;28;19920;-70
2022/11/24 05:42:58;;;;;;;;;;;22.20;99.90;;;;;;5115351;28;19968;-69
2022/11/24 05:45:24;;;;;;;;;;;22.10;99.90;;;;;;5115733;28;20386;-71
2022/11/24 05:47:52;;;;;;;;;;;21.90;99.90;;;;;;5115724;28;19931;-70
2022/11/24 05:50:19;;;;;;;;;;;21.80;99.90;;;;;;5115650;28;19912;-69
2022/11/24 05:52:46;;;;;;;;;;;21.60;99.90;;;;;;5111273;28;20016;-63
2022/11/24 05:55:18;;;;;;;;;;;21.70;99.90;;;;;;5113161;28;19911;-63
2022/11/24 05:57:44;;;;;;;;;;;21.80;99.90;;;;;;5113326;28;19916;-63
2022/11/24 06:00:12;;;;;;;;;;;21.80;99.90;;;;;;5113296;28;19916;-60
2022/11/24 06:02:38;;;;;;;;;;;21.70;99.90;;;;;;5113185;28;20276;-60
2022/11/24 06:05:05;;;;;;;;;;;21.80;99.90;;;;;;5112491;28;19941;-68
2022/11/24 06:07:32;;;;;;;;;;;21.60;99.90;;;;;;5113324;28;19908;-64
2022/11/24 06:09:59;;;;;;;;;;;21.50;99.90;;;;;;5113040;28;20021;-66
2022/11/24 06:12:26;;;;;;;;;;;21.60;99.90;;;;;;5094754;28;19943;-62
2022/11/24 06:14:52;;;;;;;;;;;21.60;99.90;;;;;;5112890;28;19919;-60
2022/11/24 06:17:19;;;;;;;;;;;21.70;99.90;;;;;;5112695;28;19916;-60
2022/11/24 06:19:48;;;;;;;;;;;21.80;99.90;;;;;;5112807;28;19927;-60
2022/11/24 06:22:17;;;;;;;;;;;21.80;99.90;;;;;;5112922;28;19908;-60
2022/11/24 06:24:45;;;;;;;;;;;21.60;99.90;;;;;;5112787;28;20312;-69
2022/11/24 06:27:12;;;;;;;;;;;21.40;99.90;;;;;;5112644;28;19943;-69
2022/11/24 06:29:38;;;;;;;;;;;21.30;99.90;;;;;;5112678;28;19958;-66
2022/11/24 06:32:05;;;;;;;;;;;21.10;99.90;;;;;;5111955;28;19933;-67
2022/11/24 06:34:32;;;;;;;;;;;21.10;99.90;;;;;;5112608;28;19908;-66
2022/11/24 06:36:59;;;;;;;;;;;21.20;99.90;;;;;;5112181;28;20281;-70
2022/11/24 06:39:25;;;;;;;;;;;21.20;99.90;;;;;;5112457;28;19922;-71
2022/11/24 06:41:52;;;;;;;;;;;21.10;99.90;;;;;;5112461;28;19980;-70
2022/11/24 06:44:19;;;;;;;;;;;21.10;99.90;;;;;;5112209;28;19915;-70
2022/11/24 06:46:46;;;;;;;;;;;21.10;99.90;;;;;;5112009;28;19915;-70
2022/11/24 06:49:13;;;;;;;;;;;21.10;99.90;;;;;;5112268;28;19965;-67
2022/11/24 06:51:40;;;;;;;;;;;21.10;99.90;;;;;;5112246;28;19930;-69
2022/11/24 06:54:08;;;;;;;;;;;21.00;99.90;;;;;;5112232;28;20262;-64
2022/11/24 06:56:34;;;;;;;;;;;21.10;99.90;;;;;;5111916;28;19919;-66
2022/11/24 06:59:01;;;;;;;;;;;21.20;99.90;;;;;;5111844;28;19908;-64
2022/11/24 07:01:28;;;;;;;;;;;21.10;99.90;;;;;;5112084;28;19918;-64
2022/11/24 07:03:56;;;;;;;;;;;20.90;99.90;;;;;;5111973;28;19908;-67
2022/11/24 07:06:24;;;;;;;;;;;20.90;99.90;;;;;;5111995;28;20414;-66
2022/11/24 07:08:51;;;;;;;;;;;20.90;99.90;;;;;;5111743;28;19916;-64
2022/11/24 07:11:19;;;;;;;;;;;20.80;99.90;;;;;;5111660;28;19907;-68
2022/11/24 07:13:46;;;;;;;;;;;20.80;99.90;;;;;;5111875;28;19914;-70
2022/11/24 07:16:20;;;;;;;;;;;20.90;99.90;;;;;;5111946;28;19907;-70
2022/11/24 07:18:47;;;;;;;;;;;20.90;99.90;;;;;;5111746;28;20697;-66
2022/11/24 07:21:14;;;;;;;;;;;20.90;99.90;;;;;;5111734;28;19920;-70
2022/11/24 07:23:41;;;;;;;;;;;20.80;99.90;;;;;;5111628;28;20421;-68
2022/11/24 07:26:08;;;;;;;;;;;20.70;99.90;;;;;;5110855;28;19914;-67
2022/11/24 07:28:38;;;;;;;;;;;20.60;99.90;;;;;;5111605;28;20319;-65
2022/11/24 07:31:06;;;;;;;;;;;20.60;99.90;;;;;;5111406;28;19908;-66
2022/11/24 07:33:32;;;;;;;;;;;20.70;99.90;;;;;;5111694;28;19959;-66
2022/11/24 07:35:59;;;;;;;;;;;20.70;99.90;;;;;;5111455;28;19960;-66
2022/11/24 07:38:26;;;;;;;;;;;20.70;99.90;;;;;;5111959;28;19908;-70
2022/11/24 07:40:53;;;;;;;;;;;20.70;99.90;;;;;;5111298;28;20006;-70
2022/11/24 07:43:19;;;;;;;;;;;20.50;99.90;;;;;;5111604;28;19952;-70
2022/11/24 07:45:55;;;;;;;;;;;20.40;99.90;;;;;;5111356;28;20396;-66
2022/11/24 07:48:22;;;;;;;;;;;20.30;99.90;;;;;;5111292;28;20273;-70
2022/11/24 07:50:49;;;;;;;;;;;20.20;99.90;;;;;;5111487;28;19908;-70
2022/11/24 07:53:16;;;;;;;;;;;20.30;99.90;;;;;;5111547;28;19915;-69
2022/11/24 07:55:43;;;;;;;;;;;20.30;99.90;;;;;;5111313;28;19945;-71
2022/11/24 07:58:09;;;;;;;;;;;20.30;99.90;;;;;;5111552;28;19919;-67
2022/11/24 08:00:36;;;;;;;;;;;20.20;99.90;;;;;;5111136;28;19919;-70
2022/11/24 08:03:03;;;;;;;;;;;20.20;99.90;;;;;;5111045;28;19911;-69
2022/11/24 08:05:30;;;;;;;;;;;20.20;99.90;;;;;;5111476;28;19923;-70
2022/11/24 08:07:58;;;;;;;;;;;20.10;99.90;;;;;;5111307;28;19991;-69
2022/11/24 08:10:25;;;;;;;;;;;20.10;99.90;;;;;;5111921;28;20281;-70
2022/11/24 08:12:52;;;;;;;;;;;20.10;99.90;;;;;;5113151;28;20002;-71
2022/11/24 08:15:19;;;;;;;;;;;20.10;99.90;;;;;;5113354;28;19908;-70
2022/11/24 08:17:45;;;;;;;;;;;20.10;99.90;;;;;;5117072;28;20389;-69
2022/11/24 08:20:12;;;;;;;;;;;20.10;99.90;;;;;;5117446;28;19969;-69
2022/11/24 08:22:39;;;;;;;;;;;20.10;99.90;;;;;;5117326;28;20313;-69
2022/11/24 08:25:06;;;;;;;;;;;20.10;99.90;;;;;;5117032;28;19912;-69
2022/11/24 08:27:32;;;;;;;;;;;19.90;99.90;;;;;;5117455;28;19908;-67
2022/11/24 08:29:59;;;;;;;;;;;19.90;99.90;;;;;;5117144;28;19914;-69
2022/11/24 08:32:26;;;;;;;;;;;19.90;99.90;;;;;;5117022;28;19908;-69
2022/11/24 08:34:52;;;;;;;;;;;19.90;99.90;;;;;;5116858;28;19908;-69
2022/11/24 08:37:19;;;;;;;;;;;19.90;99.90;;;;;;5116853;28;19990;-65
2022/11/24 08:39:46;;;;;;;;;;;19.90;99.90;;;;;;5116784;28;19919;-70
2022/11/24 08:42:13;;;;;;;;;;;19.90;99.90;;;;;;5116899;28;20374;-68
2022/11/24 08:44:39;;;;;;;;;;;19.90;99.90;;;;;;5116983;28;20005;-66
2022/11/24 08:47:06;;;;;;;;;;;19.80;99.90;;;;;;5116393;28;19953;-70
2022/11/24 08:49:33;;;;;;;;;;;19.90;99.90;;;;;;5116790;28;19921;-70
2022/11/24 08:51:59;;;;;;;;;;;19.80;99.90;;;;;;5116680;28;19961;-69
2022/11/24 08:54:26;;;;;;;;;;;19.80;99.90;;;;;;5116855;28;20346;-71
2022/11/24 08:56:53;;;;;;;;;;;19.80;99.90;;;;;;5116353;28;19945;-69
2022/11/24 08:59:20;;;;;;;;;;;19.80;99.90;;;;;;5116676;28;19915;-68
2022/11/24 09:01:47;;;;;;;;;;;19.80;99.90;;;;;;5116344;28;19918;-68
2022/11/24 09:04:14;;;;;;;;;;;19.80;99.90;;;;;;5116380;28;19945;-67
2022/11/24 09:06:41;;;;;;;;;;;19.90;99.90;;;;;;5116235;28;19915;-69
2022/11/24 09:09:09;;;;;;;;;;;19.90;99.90;;;;;;5116078;28;19908;-69
2022/11/24 09:11:35;;;;;;;;;;;19.90;99.90;;;;;;5116268;28;19907;-69
2022/11/24 09:14:02;;;;;;;;;;;19.90;99.90;;;;;;5116276;28;19908;-69
2022/11/24 09:16:29;;;;;;;;;;;19.80;99.90;;;;;;5116216;28;19908;-70
2022/11/24 09:18:58;;;;;;;;;;;19.80;99.90;;;;;;5116144;28;20006;-65
2022/11/24 09:21:25;;;;;;;;;;;19.80;99.90;;;;;;5116089;28;20263;-68
2022/11/24 09:23:52;;;;;;;;;;;19.70;99.90;;;;;;5116194;28;19965;-68
2022/11/24 09:26:21;;;;;;;;;;;19.70;99.90;;;;;;5116023;28;19908;-67
2022/11/24 09:28:49;;;;;;;;;;;19.80;99.90;;;;;;5115826;28;19950;-64
2022/11/24 09:31:16;;;;;;;;;;;19.70;99.90;;;;;;5115895;28;19908;-67
2022/11/24 09:33:43;;;;;;;;;;;19.70;99.90;;;;;;5115944;28;20415;-70
2022/11/24 09:36:09;;;;;;;;;;;19.70;99.90;;;;;;5115953;28;19996;-66
2022/11/24 09:38:36;;;;;;;;;;;19.70;99.90;;;;;;5115927;28;19908;-65
2022/11/24 09:41:21;;;;;;;;;;;19.70;99.90;;;;;;5115508;28;19945;-67
2022/11/24 09:44:00;;;;;;;;;;;19.70;99.90;;;;;;5115825;28;20451;-68
2022/11/24 09:46:35;;;;;;;;;;;19.70;99.90;;;;;;5115613;28;19911;-65
2022/11/24 09:49:03;;;;;;;;;;;19.60;99.90;;;;;;5097370;28;20293;-66
2022/11/24 09:51:31;;;;;;;;;;;19.70;99.90;;;;;;5115721;28;19911;-68
2022/11/24 09:54:02;;;;;;;;;;;19.70;99.90;;;;;;5115607;28;19911;-66
2022/11/24 09:56:33;;;;;;;;;;;19.80;99.90;;;;;;5115458;28;20012;-69
2022/11/24 09:59:10;;;;;;;;;;;19.70;99.90;;;;;;5115338;28;20054;-66
2022/11/24 10:01:39;;;;;;;;;;;19.70;99.90;;;;;;5115249;28;19916;-66
2022/11/24 10:04:18;;;;;;;;;;;19.70;99.90;;;;;;5115493;28;19915;-67
2022/11/24 10:07:05;;;;;;;;;;;19.70;99.90;;;;;;5115259;28;19907;-68
2022/11/24 10:09:50;;;;;;;;;;;19.70;99.90;;;;;;5114990;28;19908;-61
2022/11/24 10:12:23;;;;;;;;;;;19.70;99.90;;;;;;5115241;28;20294;-62
2022/11/24 10:14:58;;;;;;;;;;;19.70;99.90;;;;;;5114783;28;19915;-61
2022/11/24 10:17:34;;;;;;;;;;;19.70;99.90;;;;;;5115119;28;19908;-62
2022/11/24 10:20:13;;;;;;;;;;;19.70;99.90;;;;;;5115153;28;20006;-67
2022/11/24 10:22:45;;;;;;;;;;;19.70;99.90;;;;;;5115100;28;19912;-63
2022/11/24 10:25:18;;;;;;;;;;;19.70;99.90;;;;;;5115123;28;19907;-62
2022/11/24 10:27:49;;;;;;;;;;;19.80;99.90;;;;;;5114908;28;19915;-64
2022/11/24 10:30:21;;;;;;;;;;;19.80;99.90;;;;;;5114526;28;19907;-60
2022/11/24 10:32:48;;;;;;;;;;;19.80;99.90;;;;;;5114781;28;19908;-63
2022/11/24 10:35:18;;;;;;;;;;;19.80;99.90;;;;;;5114779;28;19907;-65
2022/11/24 10:37:57;;;;;;;;;;;19.80;99.90;;;;;;5114672;28;19908;-60
2022/11/24 10:40:23;;;;;;;;;;;19.80;99.90;;;;;;5114155;28;19916;-62
2022/11/24 10:42:51;;;;;;;;;;;19.80;99.90;;;;;;5114132;28;20007;-60
2022/11/24 10:45:21;;;;;;;;;;;19.80;99.90;;;;;;5114680;28;19907;-61
2022/11/24 10:47:48;;;;;;;;;;;19.80;99.90;;;;;;5114770;28;20412;-62
2022/11/24 10:50:15;;;;;;;;;;;19.90;99.90;;;;;;5114634;28;20339;-61
2022/11/24 10:52:44;;;;;;;;;;;19.90;99.90;;;;;;5114410;28;19942;-62
2022/11/24 10:55:10;;;;;;;;;;;19.80;99.90;;;;;;5114208;28;19911;-61
2022/11/24 10:57:38;;;;;;;;;;;19.70;99.90;;;;;;5114533;28;20440;-61
2022/11/24 11:00:20;;;;;;;;;;;19.70;99.90;;;;;;5114270;28;19912;-62
2022/11/24 11:02:49;;;;;;;;;;;19.70;99.90;;;;;;5114098;28;19912;-60
2022/11/24 11:05:47;;;;;;;;;;;19.60;99.90;;;;;;5114221;28;19915;-61
2022/11/24 11:08:16;;;;;;;;;;;19.60;99.90;;;;;;5080160;28;20285;-61
2022/11/24 11:10:44;;;;;;;;;;;19.60;99.90;;;;;;5114110;28;19954;-61
2022/11/24 11:13:23;;;;;;;;;;;19.50;99.90;;;;;;5114155;28;19947;-62
2022/11/24 11:15:50;;;;;;;;;;;19.60;99.90;;;;;;5113982;28;20281;-60
2022/11/24 11:18:18;;;;;;;;;;;19.60;99.90;;;;;;5113966;28;19977;-61
2022/11/24 11:20:55;;;;;;;;;;;19.60;99.90;;;;;;5114132;28;19922;-60
2022/11/24 11:23:25;;;;;;;;;;;19.60;99.90;;;;;;5114018;28;20380;-60
2022/11/24 11:26:11;;;;;;;;;;;19.60;99.90;;;;;;5113936;28;19912;-60
2022/11/24 11:28:38;;;;;;;;;;;19.70;99.90;;;;;;5113839;28;20352;-62
2022/11/24 11:31:05;;;;;;;;;;;19.60;99.90;;;;;;5113459;28;19918;-60
2022/11/24 11:33:35;;;;;;;;;;;19.60;99.90;;;;;;5113787;28;19912;-63
2022/11/24 11:36:09;;;;;;;;;;;19.60;99.90;;;;;;5113867;28;19962;-60
2022/11/24 11:38:37;;;;;;;;;;;19.50;99.90;;;;;;5113801;28;19915;-62
2022/11/24 11:41:05;;;;;;;;;;;19.60;99.90;;;;;;5113469;28;20374;-62
2022/11/24 11:43:34;;;;;;;;;;;19.60;99.90;;;;;;5113811;28;19995;-60
2022/11/24 11:46:01;;;;;;;;;;;19.60;99.90;;;;;;5113663;28;19914;-61
2022/11/24 11:48:30;;;;;;;;;;;19.70;99.90;;;;;;5113703;28;19908;-60
2022/11/24 11:51:15;;;;;;;;;;;19.60;99.90;;;;;;5114189;28;19908;-62
2022/11/24 11:54:04;;;;;;;;;;;19.60;99.90;;;;;;5118063;28;19908;-61
2022/11/24 11:56:34;;;;;;;;;;;19.60;99.90;;;;;;5118002;28;19927;-61
2022/11/24 11:59:33;;;;;;;;;;;19.50;99.90;;;;;;5117644;28;19919;-61
2022/11/24 12:02:29;;;;;;;;;;;19.50;99.90;;;;;;5083518;28;19922;-60
2022/11/24 12:04:57;;;;;;;;;;;19.50;99.90;;;;;;5117614;28;19915;-61
2022/11/24 12:07:36;;;;;;;;;;;19.50;99.90;;;;;;5117710;28;19912;-60
2022/11/24 12:10:25;;;;;;;;;;;19.50;99.90;;;;;;5117666;28;19908;-60
2022/11/24 12:12:57;;;;;;;;;;;19.50;99.90;;;;;;5117507;28;19961;-61
2022/11/24 12:15:27;;;;;;;;;;;19.50;99.90;;;;;;5117535;28;20365;-64
2022/11/24 12:18:26;;;;;;;;;;;19.50;99.90;;;;;;5117559;28;19946;-61
2022/11/24 12:20:58;;;;;;;;;;;19.50;99.90;;;;;;5083051;28;19916;-63
2022/11/24 12:23:33;;;;;;;;;;;19.50;99.90;;;;;;5117527;28;19908;-61
2022/11/24 12:26:05;;;;;;;;;;;19.40;99.90;;;;;;5117394;28;19911;-61
2022/11/24 12:28:37;;;;;;;;;;;19.40;99.90;;;;;;5117381;28;19908;-60
2022/11/24 12:31:05;;;;;;;;;;;19.30;99.90;;;;;;5117058;28;19943;-60
2022/11/24 12:33:43;;;;;;;;;;;19.30;99.90;;;;;;5117188;28;20322;-63
2022/11/24 12:36:10;;;;;;;;;;;19.20;99.90;;;;;;5117272;28;19912;-63
2022/11/24 12:38:46;;;;;;;;;;;19.20;99.90;;;;;;5117141;28;19915;-60
2022/11/24 12:41:24;;;;;;;;;;;19.20;99.90;;;;;;5117094;28;19916;-61
2022/11/24 12:43:51;;;;;;;;;;;19.20;99.90;;;;;;5117020;28;20354;-60
2022/11/24 12:46:21;;;;;;;;;;;19.30;99.90;;;;;;5117022;28;19994;-63
2022/11/24 12:49:03;;;;;;;;;;;19.30;99.90;;;;;;5116801;28;19922;-60
2022/11/24 12:51:41;;;;;;;;;;;19.40;99.90;;;;;;5116859;28;19911;-66
2022/11/24 12:54:13;;;;;;;;;;;19.40;99.90;;;;;;5116930;28;20386;-63
2022/11/24 12:56:46;;;;;;;;;;;19.30;99.90;;;;;;5116568;28;19943;-65
2022/11/24 12:59:22;;;;;;;;;;;19.20;99.90;;;;;;5116652;28;19914;-69
2022/11/24 13:01:51;;;;;;;;;;;19.10;99.90;;;;;;5116250;28;19911;-67
2022/11/24 13:04:25;;;;;;;;;;;19.00;99.90;;;;;;5116801;28;20281;-62
2022/11/24 13:06:52;;;;;;;;;;;19.00;99.90;;;;;;5116497;28;19912;-60
2022/11/24 13:09:18;;;;;;;;;;;18.90;99.90;;;;;;5116608;28;19961;-60
2022/11/24 13:11:47;;;;;;;;;;;18.90;99.90;;;;;;5116536;28;20017;-61
2022/11/24 13:14:13;;;;;;;;;;;19.00;99.90;;;;;;5116473;28;19994;-60
2022/11/24 13:16:49;;;;;;;;;;;19.00;99.90;;;;;;5116657;28;19912;-60
2022/11/24 13:19:30;;;;;;;;;;;18.90;99.90;;;;;;5116357;28;19961;-60
2022/11/24 13:22:14;;;;;;;;;;;19.00;99.90;;;;;;5116403;28;19915;-60
2022/11/24 13:24:41;;;;;;;;;;;18.90;99.90;;;;;;5116327;28;19912;-60
2022/11/24 13:27:18;;;;;;;;;;;18.90;99.90;;;;;;5115934;28;19908;-60
2022/11/24 13:29:46;;;;;;;;;;;18.80;99.90;;;;;;5116142;28;19994;-62
2022/11/24 13:32:16;;;;;;;;;;;18.80;99.90;;;;;;5116157;28;20384;-60
2022/11/24 13:34:44;;;;;;;;;;;18.70;99.90;;;;;;5116172;28;19908;-61
2022/11/24 13:37:30;;;;;;;;;;;18.60;99.90;;;;;;5116060;28;19911;-60
2022/11/24 13:39:58;;;;;;;;;;;18.50;99.90;;;;;;5115282;28;19923;-60
2022/11/24 13:42:26;;;;;;;;;;;18.50;99.90;;;;;;5115933;28;19953;-60
2022/11/24 13:44:56;;;;;;;;;;;18.50;99.90;;;;;;5115782;28;19908;-60
2022/11/24 13:47:29;;;;;;;;;;;18.50;99.90;;;;;;5115894;28;20323;-60
2022/11/24 13:49:55;;;;;;;;;;;18.50;99.90;;;;;;5115808;28;19915;-61
2022/11/24 13:52:43;;;;;;;;;;;18.50;99.90;;;;;;5115761;28;20356;-60
2022/11/24 13:55:12;;;;;;;;;;;18.50;99.90;;;;;;5115378;28;19915;-60
2022/11/24 13:57:50;;;;;;;;;;;18.50;99.90;;;;;;5115828;28;19920;-61
2022/11/24 14:00:22;;;;;;;;;;;18.50;99.90;;;;;;5115403;28;19916;-61
2022/11/24 14:02:50;;;;;;;;;;;18.50;99.90;;;;;;5115461;28;19912;-63
2022/11/24 14:05:18;;;;;;;;;;;18.60;99.90;;;;;;5115495;28;19914;-60
2022/11/24 14:07:46;;;;;;;;;;;18.60;99.90;;;;;;5115571;28;19918;-60
2022/11/24 14:10:14;;;;;;;;;;;18.70;99.90;;;;;;5115373;28;20358;-61
2022/11/24 14:12:42;;;;;;;;;;;18.70;99.90;;;;;;5115366;28;20379;-63
2022/11/24 14:15:20;;;;;;;;;;;18.70;99.90;;;;;;5113985;28;19915;-60
2022/11/24 14:17:46;;;;;;;;;;;18.70;99.90;;;;;;5115500;28;19950;-60
2022/11/24 14:20:22;;;;;;;;;;;18.70;99.90;;;;;;5115141;28;20401;-62
2022/11/24 14:22:49;;;;;;;;;;;18.70;99.90;;;;;;5115029;28;19907;-64
2022/11/24 14:25:30;;;;;;;;;;;18.80;99.90;;;;;;5115064;28;19908;-60
2022/11/24 14:27:58;;;;;;;;;;;18.80;99.90;;;;;;5114931;28;19915;-59
2022/11/24 14:30:25;;;;;;;;;;;18.80;99.90;;;;;;5114903;28;19908;-61
2022/11/24 14:33:02;;;;;;;;;;;18.90;99.90;;;;;;5114755;28;19912;-60